createdAt,value
2022-12-31T00:01:31.240Z,99806.59
2022-12-31T00:03:58.023Z,99814.41
2022-12-31T00:06:35.404Z,99806.66
2022-12-31T00:09:05.162Z,99804.06
2022-12-31T00:11:33.164Z,99815.28
2022-12-31T00:13:59.982Z,99817.88
2022-12-31T00:16:32.148Z,99826.56
2022-12-31T00:19:00.203Z,99808.41
2022-12-31T00:21:28.908Z,99798.97
2022-12-31T00:23:56.231Z,99803.22
2022-12-31T00:26:25.546Z,99808.41
2022-12-31T00:28:53.765Z,99818.00
2022-12-31T00:31:31.925Z,99825.75
2022-12-31T00:33:59.171Z,99828.34
2022-12-31T00:36:36.912Z,99816.34
2022-12-31T00:39:06.352Z,99836.97
2022-12-31T00:41:33.141Z,99828.38
2022-12-31T00:43:59.674Z,99821.47
2022-12-31T00:46:26.831Z,99816.28
2022-12-31T00:48:54.007Z,99815.47
2022-12-31T00:51:23.193Z,99818.06
2022-12-31T00:53:49.939Z,99828.44
2022-12-31T00:56:19.360Z,99823.25
2022-12-31T00:58:46.219Z,99818.06
2022-12-31T01:01:19.959Z,99823.25
2022-12-31T01:03:48.727Z,99824.03
2022-12-31T01:06:15.468Z,99819.72
2022-12-31T01:08:41.974Z,99825.75
2022-12-31T01:11:11.634Z,99814.53
2022-12-31T01:13:38.152Z,99814.44
2022-12-31T01:16:13.073Z,99814.44
2022-12-31T01:18:40.141Z,99817.88
2022-12-31T01:21:09.675Z,99821.28
2022-12-31T01:23:36.600Z,99812.63
2022-12-31T01:26:05.124Z,99798.03
2022-12-31T01:28:32.337Z,99806.50
2022-12-31T01:30:59.448Z,99808.19
2022-12-31T01:33:25.907Z,99802.16
2022-12-31T01:35:52.367Z,99808.97
2022-12-31T01:38:18.851Z,99808.09
2022-12-31T01:40:45.348Z,99811.47
2022-12-31T01:43:17.291Z,99813.22
2022-12-31T01:45:46.926Z,99802.84
2022-12-31T01:48:17.120Z,99804.59
2022-12-31T01:50:46.896Z,99795.00
2022-12-31T01:53:16.791Z,99792.41
2022-12-31T01:55:50.455Z,99777.72
2022-12-31T01:58:20.874Z,99781.06
2022-12-31T02:00:48.871Z,99780.19
2022-12-31T02:03:15.818Z,99784.50
2022-12-31T02:06:10.242Z,99792.28
2022-12-31T02:08:41.956Z,99786.19
2022-12-31T02:11:29.499Z,99788.78
2022-12-31T02:14:06.822Z,99787.09
2022-12-31T02:16:42.590Z,99784.50
2022-12-31T02:19:49.419Z,99785.28
2022-12-31T02:22:37.677Z,99779.22
2022-12-31T02:25:10.995Z,99765.47
2022-12-31T02:27:47.399Z,99772.31
2022-12-31T02:30:24.625Z,99777.47
2022-12-31T02:33:03.649Z,99777.44
2022-12-31T02:35:31.783Z,99773.13
2022-12-31T02:38:16.319Z,99780.00
2022-12-31T02:40:43.317Z,99789.50
2022-12-31T02:43:09.764Z,99785.16
2022-12-31T02:45:46.338Z,99782.50
2022-12-31T02:48:43.537Z,99788.50
2022-12-31T02:51:23.243Z,99789.28
2022-12-31T02:54:19.297Z,99790.13
2022-12-31T02:56:56.250Z,99783.91
2022-12-31T02:59:37.363Z,99771.00
2022-12-31T03:02:12.329Z,99772.63
2022-12-31T03:04:40.652Z,99784.50
2022-12-31T03:07:14.890Z,99775.84
2022-12-31T03:09:41.343Z,99786.97
2022-12-31T03:12:09.779Z,99780.94
2022-12-31T03:14:36.622Z,99782.56
2022-12-31T03:17:03.049Z,99785.94
2022-12-31T03:19:29.505Z,99785.91
2022-12-31T03:21:55.996Z,99789.34
2022-12-31T03:24:23.399Z,99791.09
2022-12-31T03:26:49.812Z,99782.53
2022-12-31T03:29:16.282Z,99785.94
2022-12-31T03:31:42.749Z,99778.19
2022-12-31T03:34:09.186Z,99784.25
2022-12-31T03:36:35.646Z,99780.84
2022-12-31T03:39:02.121Z,99781.72
2022-12-31T03:41:28.551Z,99761.94
2022-12-31T03:43:55.058Z,99766.28
2022-12-31T03:46:21.570Z,99762.03
2022-12-31T03:48:48.024Z,99761.25
2022-12-31T03:51:14.466Z,99754.41
2022-12-31T03:53:40.957Z,99750.94
2022-12-31T03:56:07.499Z,99738.91
2022-12-31T03:58:33.946Z,99733.72
2022-12-31T04:01:00.480Z,99719.19
2022-12-31T04:03:27.123Z,99728.66
2022-12-31T04:05:55.426Z,99732.16
2022-12-31T04:08:21.955Z,99724.41
2022-12-31T04:10:49.191Z,99715.84
2022-12-31T04:13:15.762Z,99727.06
2022-12-31T04:15:42.179Z,99724.50
2022-12-31T04:18:08.619Z,99719.38
2022-12-31T04:20:35.034Z,99715.06
2022-12-31T04:23:01.473Z,99716.84
2022-12-31T04:25:27.924Z,99710.78
2022-12-31T04:27:54.422Z,99715.97
2022-12-31T04:30:20.941Z,99703.91
2022-12-31T04:32:47.409Z,99697.84
2022-12-31T04:35:13.864Z,99686.69
2022-12-31T04:37:40.347Z,99693.59
2022-12-31T04:40:07.828Z,99686.69
2022-12-31T04:42:35.534Z,99680.63
2022-12-31T04:45:02.163Z,99677.13
2022-12-31T04:47:28.637Z,99676.25
2022-12-31T04:49:55.132Z,99682.28
2022-12-31T04:52:21.977Z,99662.38
2022-12-31T04:54:48.545Z,99670.13
2022-12-31T04:57:15.048Z,99669.19
2022-12-31T04:59:41.456Z,99671.75
2022-12-31T05:02:08.269Z,99669.97
2022-12-31T05:04:34.893Z,99671.75
2022-12-31T05:07:01.354Z,99664.78
2022-12-31T05:09:27.782Z,99664.78
2022-12-31T05:11:54.404Z,99661.31
2022-12-31T05:14:20.871Z,99657.84
2022-12-31T05:16:47.488Z,99654.38
2022-12-31T05:19:13.990Z,99656.09
2022-12-31T05:21:40.439Z,99663.78
2022-12-31T05:24:07.361Z,99664.66
2022-12-31T05:26:33.877Z,99660.28
2022-12-31T05:29:00.340Z,99669.72
2022-12-31T05:31:26.998Z,99655.88
2022-12-31T05:33:53.473Z,99661.88
2022-12-31T05:36:19.940Z,99659.22
2022-12-31T05:38:46.385Z,99658.28
2022-12-31T05:41:12.836Z,99653.00
2022-12-31T05:43:39.326Z,99646.00
2022-12-31T05:46:05.843Z,99644.22
2022-12-31T05:48:32.762Z,99645.75
2022-12-31T05:50:59.259Z,99648.25
2022-12-31T05:53:25.743Z,99645.53
2022-12-31T05:55:52.251Z,99653.16
2022-12-31T05:58:18.891Z,99640.94
2022-12-31T06:00:45.413Z,99645.06
2022-12-31T06:03:12.029Z,99657.91
2022-12-31T06:05:42.955Z,99657.84
2022-12-31T06:08:11.151Z,99658.59
2022-12-31T06:10:38.932Z,99652.50
2022-12-31T06:13:05.770Z,99649.81
2022-12-31T06:15:32.272Z,99644.75
2022-12-31T06:17:58.876Z,99650.66
2022-12-31T06:20:25.344Z,99653.16
2022-12-31T06:22:51.797Z,99653.09
2022-12-31T06:25:18.308Z,99657.31
2022-12-31T06:27:44.768Z,99660.69
2022-12-31T06:30:11.764Z,99660.56
2022-12-31T06:32:38.299Z,99660.47
2022-12-31T06:35:05.385Z,99674.19
2022-12-31T06:37:31.875Z,99677.59
2022-12-31T06:39:59.591Z,99673.16
2022-12-31T06:42:28.766Z,99669.59
2022-12-31T06:44:55.215Z,99664.28
2022-12-31T06:47:21.699Z,99668.50
2022-12-31T06:49:48.124Z,99664.06
2022-12-31T06:52:14.564Z,99669.19
2022-12-31T06:54:41.385Z,99664.75
2022-12-31T06:57:09.404Z,99667.19
2022-12-31T06:59:36.379Z,99683.59
2022-12-31T07:02:35.055Z,99678.31
2022-12-31T07:05:29.600Z,99686.84
2022-12-31T07:08:10.395Z,99687.56
2022-12-31T07:10:45.854Z,99688.31
2022-12-31T07:13:33.713Z,99684.72
2022-12-31T07:16:03.192Z,99695.84
2022-12-31T07:18:59.222Z,99700.06
2022-12-31T07:21:35.397Z,99692.22
2022-12-31T07:24:02.384Z,99705.00
2022-12-31T07:26:44.348Z,99710.97
2022-12-31T07:29:38.456Z,99702.13
2022-12-31T07:32:13.620Z,99711.53
2022-12-31T07:35:10.494Z,99732.28
2022-12-31T07:37:49.236Z,99722.63
2022-12-31T07:40:19.832Z,99726.91
2022-12-31T07:43:08.532Z,99737.22
2022-12-31T07:45:47.824Z,99715.47
2022-12-31T07:48:24.393Z,99716.41
2022-12-31T07:50:52.133Z,99720.63
2022-12-31T07:53:18.894Z,99712.91
2022-12-31T07:55:45.411Z,99721.53
2022-12-31T07:58:36.829Z,99719.09
2022-12-31T08:01:03.922Z,99731.97
2022-12-31T08:04:07.103Z,99735.47
2022-12-31T08:07:13.564Z,99745.88
2022-12-31T08:09:57.152Z,99742.34
2022-12-31T08:12:27.447Z,99751.03
2022-12-31T08:14:54.071Z,99753.44
2022-12-31T08:17:20.846Z,99766.31
2022-12-31T08:19:47.678Z,99763.72
2022-12-31T08:22:23.575Z,99771.50
2022-12-31T08:25:08.436Z,99775.66
2022-12-31T08:27:43.223Z,99791.97
2022-12-31T08:30:13.380Z,99780.66
2022-12-31T08:32:58.517Z,99796.88
2022-12-31T08:35:59.312Z,99799.44
2022-12-31T08:38:50.177Z,99801.09
2022-12-31T08:41:31.499Z,99808.13
2022-12-31T08:44:12.856Z,99810.56
2022-12-31T08:46:58.286Z,99819.38
2022-12-31T08:49:29.890Z,99840.91
2022-12-31T08:51:56.887Z,99846.03
2022-12-31T08:54:23.659Z,99840.78
2022-12-31T08:57:00.100Z,99841.53
2022-12-31T08:59:29.375Z,99851.06
2022-12-31T09:02:08.089Z,99851.00
2022-12-31T09:04:52.964Z,99840.50
2022-12-31T09:07:29.238Z,99843.25
2022-12-31T09:10:05.860Z,99852.66
2022-12-31T09:12:38.235Z,99872.53
2022-12-31T09:15:32.883Z,99880.38
2022-12-31T09:17:59.604Z,99878.53
2022-12-31T09:20:36.319Z,99890.66
2022-12-31T09:23:09.003Z,99882.84
2022-12-31T09:25:42.941Z,99892.47
2022-12-31T09:28:27.361Z,99894.16
2022-12-31T09:31:16.321Z,99916.69
2022-12-31T09:33:50.440Z,99925.31
2022-12-31T09:36:31.450Z,99922.78
2022-12-31T09:39:12.671Z,99929.63
2022-12-31T09:41:59.161Z,99920.00
2022-12-31T09:44:53.425Z,99933.88
2022-12-31T09:47:48.878Z,99929.53
2022-12-31T09:50:20.829Z,99928.56
2022-12-31T09:53:07.839Z,99924.25
2022-12-31T09:55:45.252Z,99921.59
2022-12-31T09:58:31.523Z,99923.34
2022-12-31T10:01:07.334Z,99925.91
2022-12-31T10:04:10.310Z,99917.41
2022-12-31T10:07:00.543Z,99920.66
2022-12-31T10:10:25.885Z,99915.44
2022-12-31T10:13:07.403Z,99921.47
2022-12-31T10:16:15.464Z,99913.59
2022-12-31T10:18:44.704Z,99912.66
2022-12-31T10:21:43.490Z,99904.00
2022-12-31T10:24:44.036Z,99890.94
2022-12-31T10:27:31.922Z,99898.72
2022-12-31T10:30:19.956Z,99901.25
2022-12-31T10:33:08.126Z,99897.78
2022-12-31T10:35:50.577Z,99900.34
2022-12-31T10:38:44.582Z,99903.81
2022-12-31T10:41:17.012Z,99900.31
2022-12-31T10:44:31.040Z,99913.38
2022-12-31T10:47:31.632Z,99922.81
2022-12-31T10:50:17.488Z,99927.16
2022-12-31T10:53:12.478Z,99923.78
2022-12-31T10:56:07.349Z,99936.00
2022-12-31T10:59:09.414Z,99941.97
2022-12-31T11:02:06.840Z,99941.03
2022-12-31T11:04:47.109Z,99949.78
2022-12-31T11:07:41.828Z,99938.53
2022-12-31T11:10:08.252Z,99949.66
2022-12-31T11:12:43.460Z,99942.00
2022-12-31T11:15:21.827Z,99943.56
2022-12-31T11:18:06.925Z,99935.81
2022-12-31T11:20:55.829Z,99939.19
2022-12-31T11:23:43.732Z,99952.09
2022-12-31T11:26:39.112Z,99941.72
2022-12-31T11:29:14.250Z,99946.75
2022-12-31T11:31:57.327Z,99951.09
2022-12-31T11:34:49.923Z,99939.78
2022-12-31T11:37:44.500Z,99941.50
2022-12-31T11:40:54.616Z,99944.97
2022-12-31T11:43:26.677Z,99944.19
2022-12-31T11:45:59.359Z,99948.50
2022-12-31T11:48:36.501Z,99946.91
2022-12-31T11:51:09.240Z,99940.84
2022-12-31T11:54:10.793Z,99948.81
2022-12-31T11:56:41.862Z,99949.00
2022-12-31T11:59:18.691Z,99944.81
2022-12-31T12:01:55.830Z,99935.41
2022-12-31T12:04:22.381Z,99926.03
2022-12-31T12:06:48.953Z,99930.53
2022-12-31T12:09:36.688Z,99930.69
2022-12-31T12:12:05.601Z,99929.16
2022-12-31T12:14:41.069Z,99914.53
2022-12-31T12:17:13.654Z,99909.31
2022-12-31T12:19:53.866Z,99918.03
2022-12-31T12:22:25.857Z,99900.78
2022-12-31T12:25:05.839Z,99906.00
2022-12-31T12:27:36.620Z,99893.94
2022-12-31T12:30:38.100Z,99896.53
2022-12-31T12:33:04.576Z,99904.41
2022-12-31T12:35:33.850Z,99887.25
2022-12-31T12:38:07.314Z,99894.16
2022-12-31T12:40:35.224Z,99887.34
2022-12-31T12:43:02.742Z,99885.59
2022-12-31T12:45:42.249Z,99883.91
2022-12-31T12:48:25.100Z,99877.88
2022-12-31T12:50:51.967Z,99872.69
2022-12-31T12:53:18.359Z,99871.91
2022-12-31T12:55:50.612Z,99865.03
2022-12-31T12:58:38.176Z,99858.97
2022-12-31T13:01:33.999Z,99853.03
2022-12-31T13:04:35.222Z,99868.59
2022-12-31T13:07:10.996Z,99858.19
2022-12-31T13:10:01.925Z,99860.78
2022-12-31T13:13:22.267Z,99850.44
2022-12-31T13:15:54.535Z,99861.72
2022-12-31T13:18:24.063Z,99858.25
2022-12-31T13:21:00.276Z,99853.19
2022-12-31T13:23:39.809Z,99871.28
2022-12-31T13:26:31.424Z,99858.34
2022-12-31T13:29:01.000Z,99854.91
2022-12-31T13:31:37.640Z,99862.69
2022-12-31T13:34:14.373Z,99859.19
2022-12-31T13:36:43.015Z,99865.16
2022-12-31T13:39:31.693Z,99868.69
2022-12-31T13:42:09.047Z,99864.44
2022-12-31T13:44:41.815Z,99855.84
2022-12-31T13:47:26.909Z,99876.47
2022-12-31T13:50:20.297Z,99878.28
2022-12-31T13:52:58.247Z,99878.38
2022-12-31T13:55:39.998Z,99869.69
2022-12-31T13:58:09.611Z,99866.31
2022-12-31T14:00:48.899Z,99855.97
2022-12-31T14:03:32.183Z,99855.25
2022-12-31T14:06:28.867Z,99851.78
2022-12-31T14:08:55.537Z,99845.78
2022-12-31T14:11:50.080Z,99833.78
2022-12-31T14:14:34.485Z,99836.38
2022-12-31T14:17:03.999Z,99830.38
2022-12-31T14:19:41.290Z,99827.81
2022-12-31T14:22:26.849Z,99826.16
2022-12-31T14:24:54.066Z,99829.69
2022-12-31T14:27:26.873Z,99815.94
2022-12-31T14:29:58.804Z,99809.91
2022-12-31T14:32:46.711Z,99818.47
2022-12-31T14:35:41.509Z,99810.72
2022-12-31T14:38:38.229Z,99814.22
2022-12-31T14:41:18.828Z,99821.16
2022-12-31T14:43:51.343Z,99824.56
2022-12-31T14:46:50.100Z,99825.47
2022-12-31T14:49:55.019Z,99832.41
2022-12-31T14:52:24.437Z,99820.34
2022-12-31T14:54:58.365Z,99828.00
2022-12-31T14:57:47.470Z,99824.53
2022-12-31T15:00:50.691Z,99814.97
2022-12-31T15:03:17.246Z,99810.56
2022-12-31T15:05:54.048Z,99809.63
2022-12-31T15:08:49.539Z,99809.59
2022-12-31T15:11:44.372Z,99808.69
2022-12-31T15:14:38.908Z,99792.22
2022-12-31T15:17:36.270Z,99799.97
2022-12-31T15:20:36.554Z,99789.56
2022-12-31T15:23:32.855Z,99787.03
2022-12-31T15:26:02.587Z,99790.34
2022-12-31T15:28:30.997Z,99792.06
2022-12-31T15:31:05.787Z,99795.53
2022-12-31T15:33:41.250Z,99780.88
2022-12-31T15:36:19.152Z,99789.41
2022-12-31T15:38:46.355Z,99795.44
2022-12-31T15:41:24.250Z,99785.97
2022-12-31T15:43:56.687Z,99788.56
2022-12-31T15:46:31.170Z,99793.78
2022-12-31T15:49:05.838Z,99795.56
2022-12-31T15:52:00.610Z,99794.69
2022-12-31T15:54:45.532Z,99791.38
2022-12-31T15:57:18.385Z,99806.03
2022-12-31T15:59:45.733Z,99807.72
2022-12-31T16:02:25.376Z,99806.97
2022-12-31T16:04:53.054Z,99819.09
2022-12-31T16:07:19.685Z,99820.88
2022-12-31T16:10:05.894Z,99813.97
2022-12-31T16:12:44.419Z,99823.59
2022-12-31T16:15:37.797Z,99828.00
2022-12-31T16:18:09.666Z,99833.38
2022-12-31T16:20:42.664Z,99822.97
2022-12-31T16:23:24.561Z,99841.25
2022-12-31T16:25:55.509Z,99830.84
2022-12-31T16:28:28.093Z,99819.72
2022-12-31T16:31:02.873Z,99809.34
2022-12-31T16:33:30.885Z,99801.56
2022-12-31T16:36:00.053Z,99800.72
2022-12-31T16:38:35.363Z,99777.47
2022-12-31T16:41:01.749Z,99783.50
2022-12-31T16:43:38.804Z,99785.28
2022-12-31T16:46:14.173Z,99776.75
2022-12-31T16:48:45.829Z,99784.47
2022-12-31T16:51:18.637Z,99783.66
2022-12-31T16:53:46.092Z,99776.75
2022-12-31T16:56:22.473Z,99784.56
2022-12-31T16:58:54.997Z,99787.28
2022-12-31T17:01:27.271Z,99802.81
2022-12-31T17:03:59.699Z,99785.53
2022-12-31T17:06:26.496Z,99780.31
2022-12-31T17:08:55.656Z,99775.16
2022-12-31T17:11:35.778Z,99778.72
2022-12-31T17:14:08.080Z,99782.09
2022-12-31T17:17:07.751Z,99782.09
2022-12-31T17:19:47.356Z,99802.03
2022-12-31T17:22:34.231Z,99794.19
2022-12-31T17:25:15.442Z,99792.50
2022-12-31T17:27:53.928Z,99790.00
2022-12-31T17:30:28.113Z,99784.72
2022-12-31T17:33:24.745Z,99799.47
2022-12-31T17:35:56.934Z,99808.88
2022-12-31T17:38:23.323Z,99810.56
2022-12-31T17:41:29.384Z,99783.81
2022-12-31T17:43:57.273Z,99785.53
2022-12-31T17:46:25.454Z,99788.91
2022-12-31T17:48:59.995Z,99790.63
2022-12-31T17:51:26.483Z,99794.94
2022-12-31T17:53:52.977Z,99799.28
2022-12-31T17:56:20.338Z,99816.63
2022-12-31T17:58:52.182Z,99802.75
2022-12-31T18:01:21.636Z,99803.59
2022-12-31T18:03:48.383Z,99799.25
2022-12-31T18:06:17.118Z,99804.44
2022-12-31T18:08:43.869Z,99820.91
2022-12-31T18:11:15.826Z,99817.47
2022-12-31T18:13:42.531Z,99822.53
2022-12-31T18:16:09.026Z,99799.16
2022-12-31T18:18:35.500Z,99804.34
2022-12-31T18:21:05.689Z,99815.56
2022-12-31T18:23:40.178Z,99798.38
2022-12-31T18:26:06.719Z,99799.97
2022-12-31T18:28:33.201Z,99807.78
2022-12-31T18:30:59.794Z,99795.63
2022-12-31T18:33:26.419Z,99797.38
2022-12-31T18:36:10.294Z,99793.91
2022-12-31T18:38:37.118Z,99800.00
2022-12-31T18:41:03.830Z,99800.88
2022-12-31T18:43:30.288Z,99797.38
2022-12-31T18:45:56.804Z,99807.75
2022-12-31T18:48:23.392Z,99801.69
2022-12-31T18:50:50.352Z,99799.91
2022-12-31T18:53:21.485Z,99805.94
2022-12-31T18:55:54.232Z,99795.66
2022-12-31T18:58:21.122Z,99792.03
2022-12-31T19:00:49.261Z,99803.19
2022-12-31T19:03:17.889Z,99809.22
2022-12-31T19:05:44.720Z,99806.56
2022-12-31T19:08:11.541Z,99821.28
2022-12-31T19:10:38.147Z,99809.97
2022-12-31T19:13:04.728Z,99818.59
2022-12-31T19:15:47.008Z,99809.91
2022-12-31T19:18:13.542Z,99817.66
2022-12-31T19:20:40.113Z,99816.75
2022-12-31T19:23:13.258Z,99813.22
2022-12-31T19:25:39.781Z,99814.13
2022-12-31T19:28:14.884Z,99821.03
2022-12-31T19:30:41.397Z,99816.72
2022-12-31T19:33:07.948Z,99813.22
2022-12-31T19:35:34.500Z,99821.03
2022-12-31T19:38:00.985Z,99832.28
2022-12-31T19:40:29.378Z,99824.47
2022-12-31T19:42:56.685Z,99832.25
2022-12-31T19:45:25.638Z,99813.25
2022-12-31T19:47:53.157Z,99840.00
2022-12-31T19:50:25.410Z,99824.47
2022-12-31T19:52:55.231Z,99826.22
2022-12-31T19:55:22.837Z,99850.34
2022-12-31T19:57:49.293Z,99853.78
2022-12-31T20:00:18.132Z,99849.56
2022-12-31T20:02:46.922Z,99858.97
2022-12-31T20:05:15.406Z,99871.00
2022-12-31T20:07:42.042Z,99866.63
2022-12-31T20:10:09.051Z,99870.97
2022-12-31T20:12:39.146Z,99880.44
2022-12-31T20:15:09.246Z,99863.94
2022-12-31T20:17:35.683Z,99873.47
2022-12-31T20:20:02.182Z,99880.34
2022-12-31T20:22:28.620Z,99907.09
2022-12-31T20:24:55.143Z,99912.28
2022-12-31T20:27:21.569Z,99947.81
2022-12-31T20:29:48.032Z,99932.34
2022-12-31T20:32:14.509Z,99927.41
2022-12-31T20:34:41.002Z,99932.00
2022-12-31T20:37:07.426Z,99946.13
2022-12-31T20:39:34.600Z,99959.38
2022-12-31T20:42:01.035Z,99986.44
2022-12-31T20:44:27.488Z,99971.91
2022-12-31T20:46:54.045Z,99976.41
2022-12-31T20:49:37.215Z,99962.69
2022-12-31T20:52:07.144Z,99961.16
2022-12-31T20:54:33.571Z,99977.75
2022-12-31T20:57:00.121Z,99963.13
2022-12-31T20:59:26.640Z,99966.72
2022-12-31T21:02:20.386Z,99976.34
2022-12-31T21:04:40.019Z,99971.31
2022-12-31T21:07:06.842Z,99972.28
2022-12-31T21:09:33.347Z,99976.69
2022-12-31T21:11:59.867Z,99988.88
2022-12-31T21:14:26.389Z,99988.09
2022-12-31T21:16:52.842Z,99993.28
2022-12-31T21:19:19.359Z,99984.72
2022-12-31T21:21:45.792Z,99984.72
2022-12-31T21:24:12.239Z,100001.19
2022-12-31T21:26:38.675Z,100003.00
2022-12-31T21:29:05.132Z,99998.69
2022-12-31T21:31:31.691Z,99988.31
2022-12-31T21:33:58.240Z,100003.88
2022-12-31T21:36:24.707Z,100005.53
2022-12-31T21:38:51.182Z,100008.97
2022-12-31T21:41:17.652Z,100009.75
2022-12-31T21:43:44.109Z,100019.22
2022-12-31T21:46:10.600Z,100018.25
2022-12-31T21:48:37.092Z,100031.16
2022-12-31T21:51:11.746Z,100025.03
2022-12-31T21:53:38.266Z,100036.19
2022-12-31T21:56:05.687Z,100042.22
2022-12-31T21:58:32.748Z,100042.94
2022-12-31T22:01:00.178Z,100045.53
2022-12-31T22:03:26.912Z,100052.44
2022-12-31T22:05:59.438Z,100061.88
2022-12-31T22:08:27.242Z,100053.19
2022-12-31T22:10:53.842Z,100049.75
2022-12-31T22:13:20.451Z,100080.06
2022-12-31T22:15:49.145Z,100074.03
2022-12-31T22:18:16.705Z,100081.88
2022-12-31T22:20:43.302Z,100082.72
2022-12-31T22:23:10.227Z,100090.59
2022-12-31T22:25:37.872Z,100094.94
2022-12-31T22:28:36.778Z,100115.78
2022-12-31T22:30:52.551Z,100107.16
2022-12-31T22:33:19.167Z,100105.47
2022-12-31T22:35:56.891Z,100115.94
2022-12-31T22:38:23.385Z,100131.53
2022-12-31T22:40:49.829Z,100109.03
2022-12-31T22:43:16.310Z,100132.44
2022-12-31T22:45:42.704Z,100138.47
2022-12-31T22:48:09.153Z,100138.53
2022-12-31T22:50:35.576Z,100136.88
2022-12-31T22:53:02.025Z,100147.31
2022-12-31T22:55:28.463Z,100144.72
2022-12-31T22:57:54.964Z,100134.41
2022-12-31T23:00:36.736Z,100135.38
2022-12-31T23:03:03.578Z,100145.78
2022-12-31T23:05:30.042Z,100153.56
2022-12-31T23:07:56.498Z,100146.72
2022-12-31T23:10:22.928Z,100147.66
2022-12-31T23:12:49.363Z,100154.59
2022-12-31T23:15:15.857Z,100164.13
2022-12-31T23:17:42.348Z,100163.25
2022-12-31T23:20:17.344Z,100157.25
2022-12-31T23:22:43.799Z,100163.31
2022-12-31T23:25:10.245Z,100154.72
2022-12-31T23:27:36.738Z,100168.59
2022-12-31T23:30:03.750Z,100179.84
2022-12-31T23:32:30.203Z,100168.59
2022-12-31T23:34:56.702Z,100180.72
2022-12-31T23:37:23.179Z,100181.59
2022-12-31T23:39:49.634Z,100188.53
2022-12-31T23:42:16.148Z,100197.22
2022-12-31T23:44:42.607Z,100196.38
2022-12-31T23:47:09.179Z,100210.19
2022-12-31T23:49:35.995Z,100216.25
2022-12-31T23:52:02.593Z,100224.88
2022-12-31T23:54:29.038Z,100236.09
2022-12-31T23:56:55.521Z,100244.72
2022-12-31T23:59:21.993Z,100243.88
